createdAt,value
2018-09-21T00:00:38.735Z,11.43
2018-09-21T00:03:07.460Z,16.57
2018-09-21T00:05:36.363Z,18.30
2018-09-21T00:08:04.657Z,14.03
2018-09-21T00:10:33.799Z,13.53
2018-09-21T00:13:02.409Z,16.47
2018-09-21T00:15:30.688Z,15.40
2018-09-21T00:17:58.973Z,13.60
2018-09-21T00:20:27.262Z,11.80
2018-09-21T00:22:55.526Z,9.90
2018-09-21T00:25:23.742Z,10.10
2018-09-21T00:27:51.965Z,10.20
2018-09-21T00:30:20.153Z,10.63
2018-09-21T00:32:48.613Z,7.67
2018-09-21T00:35:16.911Z,7.50
2018-09-21T00:37:45.174Z,7.53
2018-09-21T00:40:13.397Z,9.87
2018-09-21T00:42:41.617Z,8.13
2018-09-21T00:45:09.846Z,9.53
2018-09-21T00:47:38.055Z,7.53
2018-09-21T00:50:06.298Z,9.43
2018-09-21T00:52:34.728Z,9.33
2018-09-21T00:55:02.954Z,8.07
2018-09-21T00:57:31.476Z,7.67
2018-09-21T00:59:59.766Z,7.00
2018-09-21T01:02:28.982Z,7.40
2018-09-21T01:04:57.254Z,8.13
2018-09-21T01:07:25.512Z,8.30
2018-09-21T01:09:53.771Z,9.23
2018-09-21T01:12:23.038Z,13.30
2018-09-21T01:14:51.281Z,12.57
2018-09-21T01:17:19.546Z,13.07
2018-09-21T01:19:47.867Z,10.40
2018-09-21T01:22:16.037Z,11.50
2018-09-21T01:24:44.893Z,10.77
2018-09-21T01:27:15.718Z,10.83
2018-09-21T01:29:44.765Z,14.20
2018-09-21T01:32:13.073Z,9.00
2018-09-21T01:34:41.926Z,12.93
2018-09-21T01:37:10.164Z,10.50
2018-09-21T01:39:38.449Z,10.13
2018-09-21T01:42:06.654Z,9.10
2018-09-21T01:44:34.894Z,11.43
2018-09-21T01:47:03.101Z,12.30
2018-09-21T01:49:31.363Z,11.13
2018-09-21T01:51:59.606Z,9.20
2018-09-21T01:54:28.509Z,8.53
2018-09-21T01:56:56.723Z,10.70
2018-09-21T01:59:24.949Z,12.23
2018-09-21T02:01:54.240Z,10.40
2018-09-21T02:04:27.765Z,8.60
2018-09-21T02:06:56.018Z,10.07
2018-09-21T02:09:25.575Z,10.57
2018-09-21T02:11:53.762Z,9.47
2018-09-21T02:14:22.082Z,8.40
2018-09-21T02:16:50.792Z,9.00
2018-09-21T02:19:19.088Z,11.30
2018-09-21T02:21:47.333Z,12.80
2018-09-21T02:24:15.591Z,10.33
2018-09-21T02:26:43.892Z,8.60
2018-09-21T02:29:12.161Z,10.43
2018-09-21T02:31:40.570Z,11.53
2018-09-21T02:34:08.818Z,11.47
2018-09-21T02:36:37.125Z,8.90
2018-09-21T02:39:07.422Z,12.63
2018-09-21T02:41:35.789Z,9.43
2018-09-21T02:44:04.206Z,9.73
2018-09-21T02:46:33.175Z,8.70
2018-09-21T02:49:01.602Z,11.03
2018-09-21T02:51:29.826Z,9.63
2018-09-21T02:53:58.082Z,10.73
2018-09-21T02:56:26.441Z,8.90
2018-09-21T02:58:54.688Z,7.70
2018-09-21T03:01:22.965Z,9.07
2018-09-21T03:03:51.442Z,11.17
2018-09-21T03:06:20.047Z,8.03
2018-09-21T03:08:48.359Z,9.47
2018-09-21T03:11:16.604Z,7.93
2018-09-21T03:13:44.814Z,8.30
2018-09-21T03:16:13.035Z,8.90
2018-09-21T03:18:41.372Z,8.73
2018-09-21T03:21:09.658Z,10.60
2018-09-21T03:23:37.916Z,8.57
2018-09-21T03:26:06.337Z,8.27
2018-09-21T03:28:34.624Z,8.13
2018-09-21T03:31:02.944Z,10.60
2018-09-21T03:33:31.204Z,7.97
2018-09-21T03:35:59.483Z,8.07
2018-09-21T03:38:27.676Z,9.43
2018-09-21T03:40:55.901Z,12.50
2018-09-21T03:43:24.154Z,9.83
2018-09-21T03:45:52.444Z,11.63
2018-09-21T03:48:20.703Z,9.23
2018-09-21T03:50:48.956Z,8.03
2018-09-21T03:53:17.190Z,10.40
2018-09-21T03:55:45.433Z,8.30
2018-09-21T03:58:13.725Z,9.10
2018-09-21T04:00:41.997Z,10.07
2018-09-21T04:03:10.299Z,9.30
2018-09-21T04:05:38.597Z,8.30
2018-09-21T04:08:06.858Z,9.00
2018-09-21T04:10:35.097Z,10.77
2018-09-21T04:13:03.296Z,8.70
2018-09-21T04:15:31.556Z,10.30
2018-09-21T04:17:59.776Z,8.73
2018-09-21T04:20:28.025Z,8.47
2018-09-21T04:22:59.553Z,9.57
2018-09-21T04:25:27.803Z,8.07
2018-09-21T04:27:56.113Z,8.57
2018-09-21T04:30:24.831Z,8.00
2018-09-21T04:32:53.090Z,10.00
2018-09-21T04:35:21.383Z,9.77
2018-09-21T04:37:49.727Z,8.03
2018-09-21T04:40:18.011Z,8.30
2018-09-21T04:42:46.311Z,8.73
2018-09-21T04:45:14.586Z,10.67
2018-09-21T04:47:43.279Z,10.20
2018-09-21T04:50:11.638Z,12.50
2018-09-21T04:52:40.130Z,7.20
2018-09-21T04:55:08.423Z,7.23
2018-09-21T04:57:37.298Z,7.77
2018-09-21T05:00:06.414Z,9.53
2018-09-21T05:02:34.672Z,8.43
2018-09-21T05:05:03.047Z,7.53
2018-09-21T05:07:31.366Z,8.53
2018-09-21T05:09:59.606Z,9.83
2018-09-21T05:12:27.884Z,5.87
2018-09-21T05:14:56.158Z,7.63
2018-09-21T05:17:24.509Z,6.87
2018-09-21T05:19:52.925Z,8.30
2018-09-21T05:22:21.086Z,7.40
2018-09-21T05:24:49.377Z,6.50
2018-09-21T05:27:17.636Z,9.53
2018-09-21T05:29:46.021Z,6.37
2018-09-21T05:32:14.294Z,6.83
2018-09-21T05:34:42.587Z,7.67
2018-09-21T05:37:10.945Z,5.93
2018-09-21T05:39:39.193Z,8.13
2018-09-21T05:42:07.507Z,7.20
2018-09-21T05:44:36.495Z,6.80
2018-09-21T05:47:04.790Z,7.13
2018-09-21T05:49:33.051Z,9.13
2018-09-21T05:52:01.294Z,6.93
2018-09-21T05:54:29.610Z,8.90
2018-09-21T05:56:57.894Z,6.10
2018-09-21T05:59:26.177Z,12.03
2018-09-21T06:01:54.432Z,9.47
2018-09-21T06:04:22.714Z,10.07
2018-09-21T06:06:50.990Z,7.30
2018-09-21T06:09:20.041Z,8.47
2018-09-21T06:11:48.246Z,7.13
2018-09-21T06:14:16.499Z,8.47
2018-09-21T06:16:44.807Z,7.93
2018-09-21T06:19:13.098Z,8.60
2018-09-21T06:21:41.367Z,6.67
2018-09-21T06:24:09.650Z,9.87
2018-09-21T06:26:37.983Z,5.60
2018-09-21T06:29:06.258Z,8.43
2018-09-21T06:31:34.575Z,5.40
2018-09-21T06:34:02.863Z,7.60
2018-09-21T06:36:31.127Z,6.57
2018-09-21T06:38:59.511Z,6.07
2018-09-21T06:41:27.788Z,5.50
2018-09-21T06:43:56.062Z,7.97
2018-09-21T06:46:24.347Z,8.07
2018-09-21T06:48:53.027Z,7.10
2018-09-21T06:51:21.302Z,6.83
2018-09-21T06:53:49.581Z,6.47
2018-09-21T06:56:18.685Z,10.37
2018-09-21T06:58:46.951Z,5.70
2018-09-21T07:01:15.240Z,9.10
2018-09-21T07:03:43.501Z,6.97
2018-09-21T07:06:11.846Z,10.00
2018-09-21T07:08:40.070Z,10.37
2018-09-21T07:11:08.435Z,9.63
2018-09-21T07:13:36.706Z,7.63
2018-09-21T07:16:04.984Z,8.77
2018-09-21T07:18:33.263Z,8.13
2018-09-21T07:21:01.514Z,5.90
2018-09-21T07:23:29.794Z,12.30
2018-09-21T07:25:58.108Z,6.67
2018-09-21T07:28:26.452Z,6.73
2018-09-21T07:30:54.739Z,7.70
2018-09-21T07:33:23.021Z,7.60
2018-09-21T07:35:51.349Z,9.97
2018-09-21T07:38:19.573Z,10.20
2018-09-21T07:40:47.900Z,8.40
2018-09-21T07:43:16.210Z,6.77
2018-09-21T07:45:44.483Z,7.47
2018-09-21T07:48:12.757Z,8.07
2018-09-21T07:50:41.073Z,9.27
2018-09-21T07:53:09.334Z,7.97
2018-09-21T07:55:37.585Z,6.70
2018-09-21T07:58:05.883Z,7.17
2018-09-21T08:00:34.167Z,11.60
2018-09-21T08:03:02.435Z,9.20
2018-09-21T08:05:34.668Z,7.70
2018-09-21T08:08:04.417Z,9.07
2018-09-21T08:10:32.706Z,7.73
2018-09-21T08:13:01.589Z,8.97
2018-09-21T08:15:31.091Z,8.37
2018-09-21T08:17:59.343Z,11.80
2018-09-21T08:20:28.060Z,7.87
2018-09-21T08:22:56.448Z,8.00
2018-09-21T08:25:24.753Z,10.80
2018-09-21T08:27:53.038Z,8.67
2018-09-21T08:30:21.310Z,15.60
2018-09-21T08:32:49.795Z,8.50
2018-09-21T08:35:18.031Z,10.17
2018-09-21T08:37:46.313Z,11.23
2018-09-21T08:40:14.574Z,12.40
2018-09-21T08:42:42.858Z,11.87
2018-09-21T08:45:17.586Z,8.63
2018-09-21T08:47:46.176Z,8.27
2018-09-21T08:50:14.747Z,10.57
2018-09-21T08:52:43.281Z,8.47
2018-09-21T08:55:11.942Z,9.77
2018-09-21T08:57:40.411Z,8.33
2018-09-21T09:00:08.884Z,9.47
2018-09-21T09:02:37.427Z,7.97
2018-09-21T09:05:06.296Z,10.00
2018-09-21T09:07:34.788Z,10.40
2018-09-21T09:10:03.483Z,11.50
2018-09-21T09:12:32.060Z,9.67
2018-09-21T09:15:00.534Z,10.57
2018-09-21T09:17:29.050Z,9.60
2018-09-21T09:19:57.477Z,10.87
2018-09-21T09:22:26.044Z,10.37
2018-09-21T09:24:54.665Z,8.63
2018-09-21T09:27:23.259Z,8.37
2018-09-21T09:29:51.733Z,7.40
2018-09-21T09:32:20.166Z,10.67
2018-09-21T09:34:48.769Z,6.80
2018-09-21T09:37:17.303Z,8.77
2018-09-21T09:39:45.837Z,8.53
2018-09-21T09:42:16.467Z,9.93
2018-09-21T09:44:45.003Z,7.83
2018-09-21T09:47:13.378Z,6.73
2018-09-21T09:49:41.954Z,7.77
2018-09-21T09:52:10.496Z,6.03
2018-09-21T09:54:38.868Z,8.30
2018-09-21T09:57:07.391Z,6.87
2018-09-21T09:59:35.996Z,6.50
2018-09-21T10:02:04.658Z,8.57
2018-09-21T10:04:33.757Z,4.83
2018-09-21T10:07:02.263Z,6.60
2018-09-21T10:09:30.757Z,6.40
2018-09-21T10:11:59.362Z,5.10
2018-09-21T10:14:27.841Z,5.33
2018-09-21T10:16:56.358Z,7.30
2018-09-21T10:19:24.846Z,5.93
2018-09-21T10:21:53.334Z,6.37
2018-09-21T10:24:21.799Z,9.20
2018-09-21T10:26:50.273Z,6.57
2018-09-21T10:29:18.830Z,7.90
2018-09-21T10:31:47.374Z,7.23
2018-09-21T10:34:15.858Z,5.13
2018-09-21T10:36:44.275Z,5.73
2018-09-21T10:39:12.996Z,8.00
2018-09-21T10:41:41.602Z,5.40
2018-09-21T10:44:10.119Z,6.10
2018-09-21T10:49:40.980Z,5.50
2018-09-21T10:52:09.258Z,6.17
2018-09-21T10:54:37.538Z,5.30
2018-09-21T10:57:05.811Z,7.27
2018-09-21T10:59:34.062Z,5.63
2018-09-21T11:02:02.361Z,11.13
2018-09-21T11:04:30.638Z,7.53
2018-09-21T11:06:58.920Z,5.10
2018-09-21T11:09:27.157Z,7.80
2018-09-21T11:11:55.380Z,6.17
2018-09-21T11:14:23.593Z,7.03
2018-09-21T11:16:51.771Z,6.23
2018-09-21T11:19:19.987Z,5.37
2018-09-21T11:21:48.264Z,8.10
2018-09-21T11:24:16.558Z,7.73
2018-09-21T11:26:44.818Z,5.10
2018-09-21T11:29:13.207Z,5.33
2018-09-21T11:31:41.576Z,5.33
2018-09-21T11:34:09.849Z,5.93
2018-09-21T11:36:38.126Z,4.10
2018-09-21T11:39:08.245Z,7.00
2018-09-21T11:41:36.542Z,4.10
2018-09-21T11:44:04.848Z,3.97
2018-09-21T11:46:33.090Z,6.13
2018-09-21T11:49:01.351Z,6.93
2018-09-21T11:51:29.631Z,3.40
2018-09-21T11:53:57.919Z,8.03
2018-09-21T11:56:26.190Z,6.23
2018-09-21T11:58:54.470Z,7.50
2018-09-21T12:01:22.733Z,6.70
2018-09-21T12:03:51.006Z,7.30
2018-09-21T12:06:19.282Z,5.43
2018-09-21T12:08:47.562Z,6.60
2018-09-21T12:11:15.850Z,3.53
2018-09-21T12:13:44.183Z,5.47
2018-09-21T12:16:12.468Z,6.90
2018-09-21T12:18:40.792Z,5.23
2018-09-21T12:21:09.063Z,4.97
2018-09-21T12:23:37.344Z,6.47
2018-09-21T12:26:05.634Z,3.37
2018-09-21T12:28:33.954Z,4.87
2018-09-21T12:31:02.272Z,4.97
2018-09-21T12:33:30.596Z,4.57
2018-09-21T12:35:58.939Z,4.80
2018-09-21T12:38:27.228Z,3.77
2018-09-21T12:40:55.481Z,3.10
2018-09-21T12:43:23.748Z,3.77
2018-09-21T12:45:52.692Z,3.17
2018-09-21T12:48:20.937Z,6.37
2018-09-21T12:50:49.322Z,3.70
2018-09-21T12:53:19.745Z,4.20
2018-09-21T12:55:48.052Z,2.93
2018-09-21T12:58:16.435Z,4.07
2018-09-21T13:00:52.725Z,3.10
2018-09-21T13:03:22.533Z,4.97
2018-09-21T13:05:54.190Z,5.13
2018-09-21T13:08:23.510Z,1.93
2018-09-21T13:10:51.766Z,1.93
2018-09-21T13:13:20.042Z,0.70
2018-09-21T13:15:48.291Z,3.33
2018-09-21T13:18:16.493Z,1.53
2018-09-21T13:20:44.774Z,0.90
2018-09-21T13:23:13.047Z,1.60
2018-09-21T13:25:41.410Z,1.23
2018-09-21T13:28:09.601Z,0.67
2018-09-21T13:30:37.884Z,1.27
2018-09-21T13:33:06.181Z,4.80
2018-09-21T13:35:34.476Z,1.90
2018-09-21T13:38:02.734Z,1.83
2018-09-21T13:40:31.922Z,2.27
2018-09-21T13:43:00.181Z,1.27
2018-09-21T13:45:28.447Z,2.03
2018-09-21T13:47:57.555Z,3.53
2018-09-21T13:50:25.848Z,3.93
2018-09-21T13:52:54.109Z,2.03
2018-09-21T13:55:24.040Z,1.60
2018-09-21T13:57:52.351Z,4.20
2018-09-21T14:00:20.583Z,3.67
2018-09-21T14:02:48.843Z,4.23
2018-09-21T14:05:17.162Z,3.50
2018-09-21T14:07:45.448Z,4.23
2018-09-21T14:10:13.706Z,3.23
2018-09-21T14:12:41.960Z,4.13
2018-09-21T14:15:13.334Z,4.63
2018-09-21T14:17:41.612Z,5.47
2018-09-21T14:20:09.882Z,5.23
2018-09-21T14:22:38.717Z,2.33
2018-09-21T14:25:07.025Z,5.23
2018-09-21T14:27:35.528Z,4.77
2018-09-21T14:30:03.979Z,3.47
2018-09-21T14:32:33.086Z,3.70
2018-09-21T14:35:01.353Z,3.93
2018-09-21T14:37:29.663Z,3.13
2018-09-21T14:39:57.950Z,4.77
2018-09-21T14:42:26.329Z,6.37
2018-09-21T14:44:54.701Z,5.40
2018-09-21T14:47:23.045Z,7.17
2018-09-21T14:49:51.353Z,3.10
2018-09-21T14:52:19.626Z,5.37
2018-09-21T14:54:47.874Z,4.57
2018-09-21T14:57:16.081Z,4.93
2018-09-21T14:59:44.394Z,4.33
2018-09-21T15:02:13.364Z,4.50
2018-09-21T15:04:41.646Z,2.80
2018-09-21T15:07:09.906Z,3.63
2018-09-21T15:09:38.192Z,5.20
2018-09-21T15:12:06.475Z,7.93
2018-09-21T15:14:34.709Z,3.00
2018-09-21T15:17:03.006Z,5.47
2018-09-21T15:19:31.297Z,6.23
2018-09-21T15:21:59.580Z,4.57
2018-09-21T15:24:27.941Z,7.87
2018-09-21T15:26:56.234Z,6.87
2018-09-21T15:29:24.619Z,5.80
2018-09-21T15:31:52.987Z,5.30
2018-09-21T15:34:21.261Z,6.00
2018-09-21T15:36:49.649Z,4.93
2018-09-21T15:39:17.920Z,7.57
2018-09-21T15:41:46.183Z,6.60
2018-09-21T15:44:14.470Z,7.23
2018-09-21T15:46:42.746Z,7.43
2018-09-21T15:49:11.152Z,6.07
2018-09-21T15:51:39.451Z,6.97
2018-09-21T15:54:07.722Z,6.23
2018-09-21T15:56:35.951Z,6.10
2018-09-21T15:59:04.299Z,5.67
2018-09-21T16:01:32.661Z,6.07
2018-09-21T16:04:00.940Z,6.07
2018-09-21T16:06:34.055Z,8.90
2018-09-21T16:09:04.609Z,5.13
2018-09-21T16:11:32.953Z,5.47
2018-09-21T16:14:01.266Z,8.93
2018-09-21T16:16:36.863Z,8.20
2018-09-21T16:19:05.292Z,5.93
2018-09-21T16:21:33.563Z,7.70
2018-09-21T16:24:01.831Z,8.53
2018-09-21T16:26:30.170Z,7.93
2018-09-21T16:28:58.392Z,6.27
2018-09-21T16:31:26.689Z,8.43
2018-09-21T16:33:54.935Z,6.43
2018-09-21T16:36:23.257Z,5.67
2018-09-21T16:38:51.482Z,5.67
2018-09-21T16:41:19.835Z,8.60
2018-09-21T16:43:48.203Z,9.47
2018-09-21T16:46:16.543Z,10.60
2018-09-21T16:48:44.806Z,7.37
2018-09-21T16:51:13.081Z,7.27
2018-09-21T16:53:41.338Z,7.50
2018-09-21T16:56:09.605Z,5.47
2018-09-21T16:58:37.914Z,7.40
2018-09-21T17:01:06.501Z,8.23
2018-09-21T17:03:34.770Z,5.17
2018-09-21T17:06:04.238Z,5.03
2018-09-21T17:08:32.569Z,8.77
2018-09-21T17:11:00.827Z,8.30
2018-09-21T17:13:29.105Z,8.87
2018-09-21T17:15:57.375Z,4.70
2018-09-21T17:18:25.607Z,7.17
2018-09-21T17:20:53.908Z,6.57
2018-09-21T17:23:22.217Z,9.13
2018-09-21T17:25:50.556Z,5.93
2018-09-21T17:28:18.841Z,6.57
2018-09-21T17:30:47.156Z,5.60
2018-09-21T17:33:15.493Z,8.60
2018-09-21T17:35:43.815Z,6.13
2018-09-21T17:38:12.123Z,5.40
2018-09-21T17:40:40.403Z,6.00
2018-09-21T17:43:08.650Z,6.07
2018-09-21T17:45:36.984Z,6.37
2018-09-21T17:48:05.258Z,7.77
2018-09-21T17:50:33.554Z,5.63
2018-09-21T17:53:01.815Z,5.03
2018-09-21T17:55:30.121Z,5.97
2018-09-21T17:57:58.400Z,4.13
2018-09-21T18:00:26.691Z,5.97
2018-09-21T18:02:55.001Z,5.47
2018-09-21T18:05:23.286Z,5.10
2018-09-21T18:07:51.592Z,4.50
2018-09-21T18:10:19.939Z,4.03
2018-09-21T18:12:48.234Z,3.73
2018-09-21T18:15:16.491Z,3.33
2018-09-21T18:17:44.896Z,2.63
2018-09-21T18:20:13.196Z,3.80
2018-09-21T18:22:41.449Z,2.77
2018-09-21T18:25:09.750Z,5.07
2018-09-21T18:27:44.564Z,5.30
2018-09-21T18:30:12.841Z,2.17
2018-09-21T18:32:41.069Z,3.33
2018-09-21T18:35:09.287Z,3.83
2018-09-21T18:37:37.600Z,5.83
2018-09-21T18:40:05.928Z,2.30
2018-09-21T18:42:34.189Z,2.47
2018-09-21T18:45:02.462Z,5.03
2018-09-21T18:47:30.745Z,3.13
2018-09-21T18:49:59.169Z,2.70
2018-09-21T18:52:27.466Z,3.07
2018-09-21T18:54:55.700Z,3.97
2018-09-21T18:57:23.955Z,2.53
2018-09-21T18:59:52.178Z,3.90
2018-09-21T19:02:20.797Z,4.40
2018-09-21T19:04:49.061Z,2.60
2018-09-21T19:07:22.828Z,4.63
2018-09-21T19:09:51.090Z,3.53
2018-09-21T19:12:19.384Z,1.60
2018-09-21T19:14:47.650Z,2.67
2018-09-21T19:17:15.855Z,4.63
2018-09-21T19:19:44.132Z,4.10
2018-09-21T19:22:12.346Z,4.90
2018-09-21T19:24:40.613Z,5.17
2018-09-21T19:27:08.910Z,4.10
2018-09-21T19:29:37.197Z,2.97
2018-09-21T19:32:05.510Z,3.87
2018-09-21T19:34:33.790Z,2.00
2018-09-21T19:37:02.064Z,7.27
2018-09-21T19:39:30.388Z,3.37
2018-09-21T19:41:59.420Z,4.47
2018-09-21T19:44:27.669Z,5.50
2018-09-21T19:46:55.995Z,6.77
2018-09-21T19:49:25.130Z,4.10
2018-09-21T19:51:53.398Z,5.03
2018-09-21T19:54:22.303Z,3.67
2018-09-21T19:56:50.632Z,3.33
2018-09-21T19:59:19.363Z,2.80
2018-09-21T20:01:47.789Z,2.80
2018-09-21T20:04:16.089Z,4.13
2018-09-21T20:06:44.390Z,4.37
2018-09-21T20:09:13.037Z,4.93
2018-09-21T20:11:42.248Z,3.67
2018-09-21T20:14:10.509Z,3.17
2018-09-21T20:16:38.788Z,3.70
2018-09-21T20:19:07.592Z,4.60
2018-09-21T20:21:35.958Z,4.07
2018-09-21T20:24:04.356Z,3.73
2018-09-21T20:26:32.655Z,3.50
2018-09-21T20:29:01.039Z,3.47
2018-09-21T20:31:34.801Z,4.37
2018-09-21T20:34:03.036Z,3.80
2018-09-21T20:36:31.296Z,3.87
2018-09-21T20:38:59.566Z,5.57
2018-09-21T20:41:27.791Z,6.10
2018-09-21T20:43:56.095Z,4.00
2018-09-21T20:46:24.297Z,3.40
2018-09-21T20:48:52.623Z,5.70
2018-09-21T20:51:21.005Z,4.30
2018-09-21T20:53:49.350Z,5.03
2018-09-21T20:56:18.271Z,4.07
2018-09-21T20:58:46.568Z,8.60
2018-09-21T21:01:14.842Z,1.80
2018-09-21T21:03:43.153Z,2.63
2018-09-21T21:06:11.381Z,4.03
2018-09-21T21:08:39.653Z,4.33
2018-09-21T21:11:07.933Z,2.70
2018-09-21T21:13:41.898Z,2.80
2018-09-21T21:16:10.512Z,5.00
2018-09-21T21:18:38.793Z,3.83
2018-09-21T21:21:07.018Z,4.80
2018-09-21T21:23:35.302Z,2.90
2018-09-21T21:26:03.677Z,4.63
2018-09-21T21:28:31.917Z,5.53
2018-09-21T21:31:00.220Z,3.17
2018-09-21T21:33:28.520Z,3.67
2018-09-21T21:35:56.720Z,4.93
2018-09-21T21:38:25.025Z,3.20
2018-09-21T21:40:53.248Z,5.07
2018-09-21T21:43:21.495Z,8.57
2018-09-21T21:45:49.753Z,3.33
2018-09-21T21:48:17.940Z,3.77
2018-09-21T21:50:46.271Z,4.57
2018-09-21T21:53:14.451Z,6.60
2018-09-21T21:55:42.642Z,3.23
2018-09-21T21:58:10.818Z,2.47
2018-09-21T22:00:44.495Z,4.20
2018-09-21T22:03:12.672Z,2.90
2018-09-21T22:05:40.864Z,4.57
2018-09-21T22:08:09.028Z,2.97
2018-09-21T22:10:37.237Z,3.57
2018-09-21T22:13:10.975Z,3.67
2018-09-21T22:15:39.149Z,4.37
2018-09-21T22:18:07.320Z,2.47
2018-09-21T22:20:35.505Z,2.00
2018-09-21T22:23:03.784Z,5.63
2018-09-21T22:25:32.081Z,6.70
2018-09-21T22:28:00.254Z,4.27
2018-09-21T22:30:28.432Z,5.10
2018-09-21T22:32:56.802Z,3.73
2018-09-21T22:35:24.995Z,5.07
2018-09-21T22:37:53.162Z,5.10
2018-09-21T22:40:21.333Z,6.77
2018-09-21T22:42:49.517Z,4.37
2018-09-21T22:45:17.934Z,2.80
2018-09-21T22:47:46.046Z,2.60
2018-09-21T22:50:14.225Z,4.37
2018-09-21T22:52:42.401Z,3.70
2018-09-21T22:55:10.606Z,4.10
2018-09-21T22:57:38.791Z,5.17
2018-09-21T23:00:07.093Z,2.97
2018-09-21T23:02:35.249Z,2.37
2018-09-21T23:05:03.471Z,1.83
2018-09-21T23:07:31.654Z,4.00
2018-09-21T23:09:59.838Z,2.47
2018-09-21T23:12:28.102Z,3.77
2018-09-21T23:14:57.080Z,2.77
2018-09-21T23:17:25.294Z,3.67
2018-09-21T23:19:53.462Z,3.77
2018-09-21T23:22:21.649Z,3.87
2018-09-21T23:24:50.049Z,3.17
2018-09-21T23:27:18.223Z,4.80
2018-09-21T23:29:46.418Z,2.30
2018-09-21T23:32:14.612Z,4.23
2018-09-21T23:34:42.797Z,5.33
2018-09-21T23:37:10.983Z,5.47
2018-09-21T23:39:39.171Z,2.10
2018-09-21T23:42:07.333Z,5.93
2018-09-21T23:44:35.511Z,3.97
2018-09-21T23:47:03.858Z,4.07
2018-09-21T23:49:32.073Z,1.93
2018-09-21T23:52:00.297Z,3.47
2018-09-21T23:54:28.484Z,6.40
2018-09-21T23:56:56.680Z,3.87
2018-09-21T23:59:24.857Z,2.60
